Lanark, Illinois
Current Conditions -  °F | °C
As of 12:55 PM on Saturday 25 Oct 2014 (Local Time) from KSFY Reporting Station
Clear Clear  
Wind Chill: 21°   Ceiling: Unl
Heat Index: 21°   Visibility: 10mi
Dew Point:   Wind: 13mph
Humidity: 26%   Direction: 300°WNW
Pressure: 30.01"   Gusts: 16mph
Location:  42.1°N, 89.83°W
Report Text: KSFY 251755Z AUTO 30011G14KT 10SM CLR 21/00 A3001 RMK AO2 T02070003 10207 20126
Loading
Personal Weather Stations






























Interactive Weather Map
Tropical Storm Tracking
New forecast layout! Learn more

10-Day Weather Forecast

Advertisements
Track Severe Weather on mobile